sensor_id;sensor_type;location;lat;lon;timestamp;P1;durP1;ratioP1;P2;durP2;ratioP2
39242;SDS011;29823;47.404;8.566;2023-04-09T00:00:28;36.85;;;21.83;;
39242;SDS011;29823;47.404;8.566;2023-04-09T00:02:56;31.38;;;20.90;;
39242;SDS011;29823;47.404;8.566;2023-04-09T00:05:24;30.90;;;21.05;;
39242;SDS011;29823;47.404;8.566;2023-04-09T00:07:51;31.05;;;21.77;;
39242;SDS011;29823;47.404;8.566;2023-04-09T00:10:19;32.47;;;22.42;;
39242;SDS011;29823;47.404;8.566;2023-04-09T00:12:49;31.98;;;22.13;;
39242;SDS011;29823;47.404;8.566;2023-04-09T00:15:16;31.92;;;22.65;;
39242;SDS011;29823;47.404;8.566;2023-04-09T00:17:56;34.65;;;23.50;;
39242;SDS011;29823;47.404;8.566;2023-04-09T00:20:24;38.33;;;24.58;;
39242;SDS011;29823;47.404;8.566;2023-04-09T00:22:52;37.05;;;24.73;;
39242;SDS011;29823;47.404;8.566;2023-04-09T00:25:21;41.70;;;26.83;;
39242;SDS011;29823;47.404;8.566;2023-04-09T00:27:50;41.92;;;27.17;;
39242;SDS011;29823;47.404;8.566;2023-04-09T00:30:18;38.40;;;26.23;;
39242;SDS011;29823;47.404;8.566;2023-04-09T00:32:46;40.85;;;26.30;;
39242;SDS011;29823;47.404;8.566;2023-04-09T00:35:14;43.17;;;26.75;;
39242;SDS011;29823;47.404;8.566;2023-04-09T00:37:42;38.40;;;25.77;;
39242;SDS011;29823;47.404;8.566;2023-04-09T00:40:10;49.22;;;30.48;;
39242;SDS011;29823;47.404;8.566;2023-04-09T00:42:38;48.50;;;30.20;;
39242;SDS011;29823;47.404;8.566;2023-04-09T00:45:08;47.38;;;31.77;;
39242;SDS011;29823;47.404;8.566;2023-04-09T00:47:36;48.65;;;30.75;;
39242;SDS011;29823;47.404;8.566;2023-04-09T00:50:05;40.85;;;28.55;;
39242;SDS011;29823;47.404;8.566;2023-04-09T00:52:33;46.75;;;29.45;;
39242;SDS011;29823;47.404;8.566;2023-04-09T00:55:02;44.10;;;28.60;;
39242;SDS011;29823;47.404;8.566;2023-04-09T00:57:31;49.92;;;31.27;;
39242;SDS011;29823;47.404;8.566;2023-04-09T00:59:59;47.10;;;29.65;;
39242;SDS011;29823;47.404;8.566;2023-04-09T01:02:28;49.72;;;31.00;;
39242;SDS011;29823;47.404;8.566;2023-04-09T01:04:57;48.88;;;31.02;;
39242;SDS011;29823;47.404;8.566;2023-04-09T01:07:28;50.15;;;30.50;;
39242;SDS011;29823;47.404;8.566;2023-04-09T01:10:06;48.88;;;31.70;;
39242;SDS011;29823;47.404;8.566;2023-04-09T01:12:42;52.00;;;31.75;;
39242;SDS011;29823;47.404;8.566;2023-04-09T01:15:21;53.08;;;34.15;;
39242;SDS011;29823;47.404;8.566;2023-04-09T01:20:28;54.80;;;32.15;;
39242;SDS011;29823;47.404;8.566;2023-04-09T01:23:10;43.15;;;29.20;;
39242;SDS011;29823;47.404;8.566;2023-04-09T01:25:50;46.33;;;29.10;;
39242;SDS011;29823;47.404;8.566;2023-04-09T01:28:28;46.75;;;28.85;;
39242;SDS011;29823;47.404;8.566;2023-04-09T01:31:01;47.92;;;30.63;;
39242;SDS011;29823;47.404;8.566;2023-04-09T01:33:33;51.20;;;31.95;;
39242;SDS011;29823;47.404;8.566;2023-04-09T01:36:04;51.53;;;31.00;;
39242;SDS011;29823;47.404;8.566;2023-04-09T01:38:34;49.47;;;31.50;;
39242;SDS011;29823;47.404;8.566;2023-04-09T01:41:03;47.90;;;29.50;;
39242;SDS011;29823;47.404;8.566;2023-04-09T01:43:34;52.08;;;32.70;;
39242;SDS011;29823;47.404;8.566;2023-04-09T01:46:03;53.00;;;32.43;;
39242;SDS011;29823;47.404;8.566;2023-04-09T01:48:31;65.00;;;34.85;;
39242;SDS011;29823;47.404;8.566;2023-04-09T01:51:00;56.65;;;34.67;;
39242;SDS011;29823;47.404;8.566;2023-04-09T01:53:28;57.75;;;34.50;;
39242;SDS011;29823;47.404;8.566;2023-04-09T01:55:57;57.65;;;34.28;;
39242;SDS011;29823;47.404;8.566;2023-04-09T01:58:26;57.63;;;33.50;;
39242;SDS011;29823;47.404;8.566;2023-04-09T02:00:56;57.22;;;34.90;;
39242;SDS011;29823;47.404;8.566;2023-04-09T02:03:30;57.08;;;34.13;;
39242;SDS011;29823;47.404;8.566;2023-04-09T02:06:04;56.88;;;35.25;;
39242;SDS011;29823;47.404;8.566;2023-04-09T02:08:40;56.08;;;34.45;;
39242;SDS011;29823;47.404;8.566;2023-04-09T02:11:11;58.37;;;35.73;;
39242;SDS011;29823;47.404;8.566;2023-04-09T02:13:41;62.35;;;35.10;;
39242;SDS011;29823;47.404;8.566;2023-04-09T02:16:11;56.33;;;34.25;;
39242;SDS011;29823;47.404;8.566;2023-04-09T02:18:42;56.45;;;36.50;;
39242;SDS011;29823;47.404;8.566;2023-04-09T02:21:10;57.47;;;35.97;;
39242;SDS011;29823;47.404;8.566;2023-04-09T02:23:39;60.22;;;36.72;;
39242;SDS011;29823;47.404;8.566;2023-04-09T02:26:06;56.75;;;36.88;;
39242;SDS011;29823;47.404;8.566;2023-04-09T02:28:34;63.95;;;37.03;;
39242;SDS011;29823;47.404;8.566;2023-04-09T02:31:02;56.80;;;35.55;;
39242;SDS011;29823;47.404;8.566;2023-04-09T02:33:32;55.47;;;34.63;;
39242;SDS011;29823;47.404;8.566;2023-04-09T02:36:00;52.08;;;34.20;;
39242;SDS011;29823;47.404;8.566;2023-04-09T02:38:28;50.60;;;33.00;;
39242;SDS011;29823;47.404;8.566;2023-04-09T02:40:55;51.88;;;33.28;;
39242;SDS011;29823;47.404;8.566;2023-04-09T02:43:23;53.72;;;33.63;;
39242;SDS011;29823;47.404;8.566;2023-04-09T02:45:51;48.03;;;32.42;;
39242;SDS011;29823;47.404;8.566;2023-04-09T02:48:19;48.97;;;31.40;;
39242;SDS011;29823;47.404;8.566;2023-04-09T02:50:48;56.65;;;35.42;;
39242;SDS011;29823;47.404;8.566;2023-04-09T02:53:16;48.42;;;32.58;;
39242;SDS011;29823;47.404;8.566;2023-04-09T02:55:44;51.38;;;32.92;;
39242;SDS011;29823;47.404;8.566;2023-04-09T02:58:12;50.65;;;33.15;;
39242;SDS011;29823;47.404;8.566;2023-04-09T03:00:39;53.08;;;34.35;;
39242;SDS011;29823;47.404;8.566;2023-04-09T03:03:07;51.78;;;33.53;;
39242;SDS011;29823;47.404;8.566;2023-04-09T03:05:36;49.50;;;33.35;;
39242;SDS011;29823;47.404;8.566;2023-04-09T03:08:05;53.15;;;32.65;;
39242;SDS011;29823;47.404;8.566;2023-04-09T03:10:33;46.15;;;30.58;;
39242;SDS011;29823;47.404;8.566;2023-04-09T03:13:01;47.75;;;31.73;;
39242;SDS011;29823;47.404;8.566;2023-04-09T03:15:28;52.67;;;33.05;;
39242;SDS011;29823;47.404;8.566;2023-04-09T03:17:56;48.47;;;31.98;;
39242;SDS011;29823;47.404;8.566;2023-04-09T03:20:24;53.78;;;34.60;;
39242;SDS011;29823;47.404;8.566;2023-04-09T03:22:52;57.63;;;34.42;;
39242;SDS011;29823;47.404;8.566;2023-04-09T03:25:21;53.08;;;33.67;;
39242;SDS011;29823;47.404;8.566;2023-04-09T03:27:49;52.40;;;33.70;;
39242;SDS011;29823;47.404;8.566;2023-04-09T03:30:17;55.40;;;34.42;;
39242;SDS011;29823;47.404;8.566;2023-04-09T03:32:44;48.65;;;32.70;;
39242;SDS011;29823;47.404;8.566;2023-04-09T03:35:12;52.25;;;32.83;;
39242;SDS011;29823;47.404;8.566;2023-04-09T03:37:40;50.90;;;34.42;;
39242;SDS011;29823;47.404;8.566;2023-04-09T03:40:08;47.17;;;31.27;;
39242;SDS011;29823;47.404;8.566;2023-04-09T03:42:40;52.03;;;31.65;;
39242;SDS011;29823;47.404;8.566;2023-04-09T03:45:08;46.80;;;30.23;;
39242;SDS011;29823;47.404;8.566;2023-04-09T03:47:37;51.92;;;34.13;;
39242;SDS011;29823;47.404;8.566;2023-04-09T03:50:05;57.10;;;35.97;;
39242;SDS011;29823;47.404;8.566;2023-04-09T03:52:33;53.05;;;33.45;;
39242;SDS011;29823;47.404;8.566;2023-04-09T03:55:01;53.50;;;33.50;;
39242;SDS011;29823;47.404;8.566;2023-04-09T03:57:29;54.10;;;34.75;;
39242;SDS011;29823;47.404;8.566;2023-04-09T03:59:59;54.58;;;35.80;;
39242;SDS011;29823;47.404;8.566;2023-04-09T04:02:26;57.15;;;35.22;;
39242;SDS011;29823;47.404;8.566;2023-04-09T04:04:59;57.13;;;35.35;;
39242;SDS011;29823;47.404;8.566;2023-04-09T04:07:26;58.08;;;36.45;;
39242;SDS011;29823;47.404;8.566;2023-04-09T04:09:55;62.80;;;37.97;;
39242;SDS011;29823;47.404;8.566;2023-04-09T04:12:23;51.30;;;33.20;;
39242;SDS011;29823;47.404;8.566;2023-04-09T04:14:50;52.05;;;33.90;;
39242;SDS011;29823;47.404;8.566;2023-04-09T04:17:20;54.42;;;34.47;;
39242;SDS011;29823;47.404;8.566;2023-04-09T04:19:48;54.67;;;33.78;;
39242;SDS011;29823;47.404;8.566;2023-04-09T04:22:16;50.95;;;32.90;;
39242;SDS011;29823;47.404;8.566;2023-04-09T04:24:43;52.10;;;33.28;;
39242;SDS011;29823;47.404;8.566;2023-04-09T04:27:11;54.92;;;35.17;;
39242;SDS011;29823;47.404;8.566;2023-04-09T04:29:39;54.60;;;35.30;;
39242;SDS011;29823;47.404;8.566;2023-04-09T04:32:07;56.55;;;36.13;;
39242;SDS011;29823;47.404;8.566;2023-04-09T04:34:36;61.08;;;36.85;;
39242;SDS011;29823;47.404;8.566;2023-04-09T04:37:04;57.35;;;36.97;;
39242;SDS011;29823;47.404;8.566;2023-04-09T04:39:32;59.63;;;35.95;;
39242;SDS011;29823;47.404;8.566;2023-04-09T04:42:00;59.30;;;37.03;;
39242;SDS011;29823;47.404;8.566;2023-04-09T04:44:27;58.40;;;37.25;;
39242;SDS011;29823;47.404;8.566;2023-04-09T04:46:55;62.35;;;36.53;;
39242;SDS011;29823;47.404;8.566;2023-04-09T04:49:23;63.17;;;35.83;;
39242;SDS011;29823;47.404;8.566;2023-04-09T04:51:52;60.35;;;34.80;;
39242;SDS011;29823;47.404;8.566;2023-04-09T04:54:20;56.97;;;33.67;;
39242;SDS011;29823;47.404;8.566;2023-04-09T04:56:48;57.90;;;34.60;;
39242;SDS011;29823;47.404;8.566;2023-04-09T04:59:15;58.50;;;35.03;;
39242;SDS011;29823;47.404;8.566;2023-04-09T05:01:43;56.17;;;34.28;;
39242;SDS011;29823;47.404;8.566;2023-04-09T05:04:11;57.40;;;35.80;;
39242;SDS011;29823;47.404;8.566;2023-04-09T05:06:39;65.57;;;37.55;;
39242;SDS011;29823;47.404;8.566;2023-04-09T05:09:08;63.95;;;37.92;;
39242;SDS011;29823;47.404;8.566;2023-04-09T05:11:36;68.20;;;39.65;;
39242;SDS011;29823;47.404;8.566;2023-04-09T05:14:04;68.80;;;39.15;;
39242;SDS011;29823;47.404;8.566;2023-04-09T05:16:32;68.03;;;39.30;;
39242;SDS011;29823;47.404;8.566;2023-04-09T05:19:00;67.78;;;38.80;;
39242;SDS011;29823;47.404;8.566;2023-04-09T05:21:28;67.55;;;39.38;;
39242;SDS011;29823;47.404;8.566;2023-04-09T05:23:56;67.43;;;39.13;;
39242;SDS011;29823;47.404;8.566;2023-04-09T05:26:26;65.78;;;37.92;;
39242;SDS011;29823;47.404;8.566;2023-04-09T05:28:54;66.47;;;37.28;;
39242;SDS011;29823;47.404;8.566;2023-04-09T05:31:22;67.22;;;38.40;;
39242;SDS011;29823;47.404;8.566;2023-04-09T05:33:49;67.45;;;38.53;;
39242;SDS011;29823;47.404;8.566;2023-04-09T05:36:18;67.45;;;37.05;;
39242;SDS011;29823;47.404;8.566;2023-04-09T05:38:46;58.33;;;35.50;;
39242;SDS011;29823;47.404;8.566;2023-04-09T05:41:14;62.28;;;36.25;;
39242;SDS011;29823;47.404;8.566;2023-04-09T05:43:43;57.72;;;33.13;;
39242;SDS011;29823;47.404;8.566;2023-04-09T05:46:11;56.80;;;33.45;;
39242;SDS011;29823;47.404;8.566;2023-04-09T05:48:39;52.10;;;32.15;;
39242;SDS011;29823;47.404;8.566;2023-04-09T05:51:08;51.97;;;31.95;;
39242;SDS011;29823;47.404;8.566;2023-04-09T05:53:35;49.38;;;30.75;;
39242;SDS011;29823;47.404;8.566;2023-04-09T05:56:06;49.05;;;31.67;;
39242;SDS011;29823;47.404;8.566;2023-04-09T05:58:40;48.25;;;30.27;;
39242;SDS011;29823;47.404;8.566;2023-04-09T06:01:09;42.42;;;29.30;;
39242;SDS011;29823;47.404;8.566;2023-04-09T06:03:37;46.00;;;29.05;;
39242;SDS011;29823;47.404;8.566;2023-04-09T06:06:06;39.72;;;27.48;;
39242;SDS011;29823;47.404;8.566;2023-04-09T06:08:33;46.03;;;28.02;;
39242;SDS011;29823;47.404;8.566;2023-04-09T06:11:01;43.33;;;27.50;;
39242;SDS011;29823;47.404;8.566;2023-04-09T06:13:29;38.47;;;26.02;;
39242;SDS011;29823;47.404;8.566;2023-04-09T06:15:57;40.28;;;26.77;;
39242;SDS011;29823;47.404;8.566;2023-04-09T06:18:27;36.85;;;24.98;;
39242;SDS011;29823;47.404;8.566;2023-04-09T06:21:00;38.20;;;25.52;;
39242;SDS011;29823;47.404;8.566;2023-04-09T06:23:28;33.92;;;24.30;;
39242;SDS011;29823;47.404;8.566;2023-04-09T06:25:56;34.00;;;23.60;;
39242;SDS011;29823;47.404;8.566;2023-04-09T06:28:24;33.70;;;22.65;;
39242;SDS011;29823;47.404;8.566;2023-04-09T06:30:52;33.88;;;22.42;;
39242;SDS011;29823;47.404;8.566;2023-04-09T06:33:20;35.50;;;22.63;;
39242;SDS011;29823;47.404;8.566;2023-04-09T06:35:49;31.27;;;22.00;;
39242;SDS011;29823;47.404;8.566;2023-04-09T06:38:17;29.48;;;20.33;;
39242;SDS011;29823;47.404;8.566;2023-04-09T06:40:45;27.00;;;18.88;;
39242;SDS011;29823;47.404;8.566;2023-04-09T06:43:13;28.42;;;20.38;;
39242;SDS011;29823;47.404;8.566;2023-04-09T06:45:41;26.48;;;19.63;;
39242;SDS011;29823;47.404;8.566;2023-04-09T06:48:09;29.15;;;19.73;;
39242;SDS011;29823;47.404;8.566;2023-04-09T06:50:37;29.88;;;20.92;;
39242;SDS011;29823;47.404;8.566;2023-04-09T06:53:06;28.58;;;20.52;;
39242;SDS011;29823;47.404;8.566;2023-04-09T06:55:34;27.02;;;20.02;;
39242;SDS011;29823;47.404;8.566;2023-04-09T06:58:02;28.75;;;19.02;;
39242;SDS011;29823;47.404;8.566;2023-04-09T07:00:30;28.15;;;20.25;;
39242;SDS011;29823;47.404;8.566;2023-04-09T07:02:58;28.77;;;20.08;;
39242;SDS011;29823;47.404;8.566;2023-04-09T07:05:26;30.90;;;21.58;;
39242;SDS011;29823;47.404;8.566;2023-04-09T07:07:54;30.05;;;20.52;;
39242;SDS011;29823;47.404;8.566;2023-04-09T07:10:23;31.38;;;19.98;;
39242;SDS011;29823;47.404;8.566;2023-04-09T07:12:51;26.67;;;19.50;;
39242;SDS011;29823;47.404;8.566;2023-04-09T07:15:19;29.38;;;19.92;;
39242;SDS011;29823;47.404;8.566;2023-04-09T07:17:47;27.38;;;20.17;;
39242;SDS011;29823;47.404;8.566;2023-04-09T07:20:15;27.23;;;19.50;;
39242;SDS011;29823;47.404;8.566;2023-04-09T07:22:42;28.23;;;20.58;;
39242;SDS011;29823;47.404;8.566;2023-04-09T07:25:10;27.33;;;19.20;;
39242;SDS011;29823;47.404;8.566;2023-04-09T07:27:39;28.90;;;20.00;;
39242;SDS011;29823;47.404;8.566;2023-04-09T07:30:08;28.52;;;20.02;;
39242;SDS011;29823;47.404;8.566;2023-04-09T07:32:36;28.05;;;19.15;;
39242;SDS011;29823;47.404;8.566;2023-04-09T07:35:05;26.92;;;18.98;;
39242;SDS011;29823;47.404;8.566;2023-04-09T07:37:34;27.75;;;19.67;;
39242;SDS011;29823;47.404;8.566;2023-04-09T07:40:03;27.25;;;19.15;;
39242;SDS011;29823;47.404;8.566;2023-04-09T07:42:31;27.50;;;19.25;;
39242;SDS011;29823;47.404;8.566;2023-04-09T07:45:00;23.38;;;17.65;;
39242;SDS011;29823;47.404;8.566;2023-04-09T07:47:28;27.88;;;18.73;;
39242;SDS011;29823;47.404;8.566;2023-04-09T07:49:57;24.45;;;17.80;;
39242;SDS011;29823;47.404;8.566;2023-04-09T07:52:24;24.33;;;17.02;;
39242;SDS011;29823;47.404;8.566;2023-04-09T07:54:52;22.45;;;16.50;;
39242;SDS011;29823;47.404;8.566;2023-04-09T07:57:20;21.55;;;16.52;;
39242;SDS011;29823;47.404;8.566;2023-04-09T07:59:48;23.73;;;17.05;;
39242;SDS011;29823;47.404;8.566;2023-04-09T08:02:17;24.45;;;18.05;;
39242;SDS011;29823;47.404;8.566;2023-04-09T08:04:45;24.60;;;17.15;;
39242;SDS011;29823;47.404;8.566;2023-04-09T08:07:13;24.05;;;17.50;;
39242;SDS011;29823;47.404;8.566;2023-04-09T08:09:41;23.73;;;17.80;;
39242;SDS011;29823;47.404;8.566;2023-04-09T08:12:09;20.88;;;16.13;;
39242;SDS011;29823;47.404;8.566;2023-04-09T08:14:37;24.90;;;17.75;;
39242;SDS011;29823;47.404;8.566;2023-04-09T08:17:05;25.05;;;17.50;;
39242;SDS011;29823;47.404;8.566;2023-04-09T08:19:34;21.02;;;16.05;;
39242;SDS011;29823;47.404;8.566;2023-04-09T08:22:03;22.17;;;16.20;;
39242;SDS011;29823;47.404;8.566;2023-04-09T08:24:31;22.98;;;16.58;;
39242;SDS011;29823;47.404;8.566;2023-04-09T08:26:59;22.05;;;15.98;;
39242;SDS011;29823;47.404;8.566;2023-04-09T08:29:28;21.23;;;15.13;;
39242;SDS011;29823;47.404;8.566;2023-04-09T08:31:57;20.55;;;15.63;;
39242;SDS011;29823;47.404;8.566;2023-04-09T08:34:25;20.25;;;14.75;;
39242;SDS011;29823;47.404;8.566;2023-04-09T08:36:54;21.25;;;14.10;;
39242;SDS011;29823;47.404;8.566;2023-04-09T08:39:22;20.17;;;14.98;;
39242;SDS011;29823;47.404;8.566;2023-04-09T08:41:50;18.20;;;14.25;;
39242;SDS011;29823;47.404;8.566;2023-04-09T08:44:18;17.50;;;13.98;;
39242;SDS011;29823;47.404;8.566;2023-04-09T08:46:47;16.95;;;14.07;;
39242;SDS011;29823;47.404;8.566;2023-04-09T08:49:15;16.77;;;13.45;;
39242;SDS011;29823;47.404;8.566;2023-04-09T08:51:44;18.15;;;13.75;;
39242;SDS011;29823;47.404;8.566;2023-04-09T08:54:14;18.05;;;13.38;;
39242;SDS011;29823;47.404;8.566;2023-04-09T08:56:45;18.40;;;13.70;;
39242;SDS011;29823;47.404;8.566;2023-04-09T08:59:14;17.88;;;13.45;;
39242;SDS011;29823;47.404;8.566;2023-04-09T09:01:42;15.48;;;12.75;;
39242;SDS011;29823;47.404;8.566;2023-04-09T09:04:12;19.38;;;13.65;;
39242;SDS011;29823;47.404;8.566;2023-04-09T09:06:40;17.92;;;13.25;;
39242;SDS011;29823;47.404;8.566;2023-04-09T09:09:09;18.60;;;13.65;;
39242;SDS011;29823;47.404;8.566;2023-04-09T09:11:39;17.63;;;13.48;;
39242;SDS011;29823;47.404;8.566;2023-04-09T09:14:07;17.38;;;13.70;;
39242;SDS011;29823;47.404;8.566;2023-04-09T09:16:37;16.95;;;13.02;;
39242;SDS011;29823;47.404;8.566;2023-04-09T09:19:09;15.27;;;12.68;;
39242;SDS011;29823;47.404;8.566;2023-04-09T09:21:54;17.13;;;13.10;;
39242;SDS011;29823;47.404;8.566;2023-04-09T09:24:23;15.63;;;12.75;;
39242;SDS011;29823;47.404;8.566;2023-04-09T09:26:52;15.52;;;12.43;;
39242;SDS011;29823;47.404;8.566;2023-04-09T09:29:21;17.13;;;12.80;;
39242;SDS011;29823;47.404;8.566;2023-04-09T09:31:49;14.65;;;12.40;;
39242;SDS011;29823;47.404;8.566;2023-04-09T09:34:18;17.05;;;13.20;;
39242;SDS011;29823;47.404;8.566;2023-04-09T09:36:49;15.50;;;11.90;;
39242;SDS011;29823;47.404;8.566;2023-04-09T09:39:17;14.18;;;11.98;;
39242;SDS011;29823;47.404;8.566;2023-04-09T09:41:45;17.73;;;12.02;;
39242;SDS011;29823;47.404;8.566;2023-04-09T09:47:25;14.43;;;12.27;;
39242;SDS011;29823;47.404;8.566;2023-04-09T09:49:55;13.93;;;12.27;;
39242;SDS011;29823;47.404;8.566;2023-04-09T09:52:24;16.58;;;11.35;;
39242;SDS011;29823;47.404;8.566;2023-04-09T09:54:52;16.30;;;13.07;;
39242;SDS011;29823;47.404;8.566;2023-04-09T09:57:24;15.73;;;12.15;;
39242;SDS011;29823;47.404;8.566;2023-04-09T09:59:54;14.35;;;11.98;;
39242;SDS011;29823;47.404;8.566;2023-04-09T10:02:28;16.83;;;13.52;;
39242;SDS011;29823;47.404;8.566;2023-04-09T10:05:04;15.82;;;12.88;;
39242;SDS011;29823;47.404;8.566;2023-04-09T10:07:34;14.40;;;11.82;;
39242;SDS011;29823;47.404;8.566;2023-04-09T10:10:04;12.82;;;11.40;;
39242;SDS011;29823;47.404;8.566;2023-04-09T10:12:33;13.60;;;11.50;;
39242;SDS011;29823;47.404;8.566;2023-04-09T10:15:01;14.75;;;12.70;;
39242;SDS011;29823;47.404;8.566;2023-04-09T10:17:32;11.55;;;10.35;;
39242;SDS011;29823;47.404;8.566;2023-04-09T10:20:04;12.70;;;10.68;;
39242;SDS011;29823;47.404;8.566;2023-04-09T10:22:37;12.65;;;10.40;;
39242;SDS011;29823;47.404;8.566;2023-04-09T10:25:07;12.57;;;10.68;;
39242;SDS011;29823;47.404;8.566;2023-04-09T10:27:35;13.65;;;11.73;;
39242;SDS011;29823;47.404;8.566;2023-04-09T10:30:03;13.07;;;10.85;;
39242;SDS011;29823;47.404;8.566;2023-04-09T10:32:36;12.68;;;10.73;;
39242;SDS011;29823;47.404;8.566;2023-04-09T10:35:05;13.38;;;10.68;;
39242;SDS011;29823;47.404;8.566;2023-04-09T10:37:35;13.05;;;10.65;;
39242;SDS011;29823;47.404;8.566;2023-04-09T10:40:04;13.25;;;10.88;;
39242;SDS011;29823;47.404;8.566;2023-04-09T10:42:35;12.65;;;10.68;;
39242;SDS011;29823;47.404;8.566;2023-04-09T10:45:06;12.55;;;10.63;;
39242;SDS011;29823;47.404;8.566;2023-04-09T10:47:38;12.20;;;10.57;;
39242;SDS011;29823;47.404;8.566;2023-04-09T10:50:18;12.68;;;11.32;;
39242;SDS011;29823;47.404;8.566;2023-04-09T10:52:50;13.15;;;10.30;;
39242;SDS011;29823;47.404;8.566;2023-04-09T10:55:34;12.00;;;10.57;;
39242;SDS011;29823;47.404;8.566;2023-04-09T10:58:03;12.52;;;9.80;;
39242;SDS011;29823;47.404;8.566;2023-04-09T11:00:36;11.63;;;10.43;;
39242;SDS011;29823;47.404;8.566;2023-04-09T11:05:51;7.85;;;6.90;;
39242;SDS011;29823;47.404;8.566;2023-04-09T11:08:21;9.80;;;8.52;;
39242;SDS011;29823;47.404;8.566;2023-04-09T11:10:49;8.43;;;7.18;;
39242;SDS011;29823;47.404;8.566;2023-04-09T11:13:22;9.43;;;8.10;;
39242;SDS011;29823;47.404;8.566;2023-04-09T11:15:49;10.57;;;9.23;;
39242;SDS011;29823;47.404;8.566;2023-04-09T11:18:21;9.77;;;8.77;;
39242;SDS011;29823;47.404;8.566;2023-04-09T11:20:53;9.93;;;8.93;;
39242;SDS011;29823;47.404;8.566;2023-04-09T11:23:21;8.65;;;7.70;;
39242;SDS011;29823;47.404;8.566;2023-04-09T11:25:50;8.85;;;7.55;;
39242;SDS011;29823;47.404;8.566;2023-04-09T11:28:19;8.18;;;7.30;;
39242;SDS011;29823;47.404;8.566;2023-04-09T11:30:48;8.93;;;7.93;;
39242;SDS011;29823;47.404;8.566;2023-04-09T11:33:16;8.90;;;7.70;;
39242;SDS011;29823;47.404;8.566;2023-04-09T11:35:47;9.85;;;8.38;;
39242;SDS011;29823;47.404;8.566;2023-04-09T11:38:15;8.50;;;7.40;;
39242;SDS011;29823;47.404;8.566;2023-04-09T11:40:43;8.40;;;7.50;;
39242;SDS011;29823;47.404;8.566;2023-04-09T11:43:14;8.98;;;7.65;;
39242;SDS011;29823;47.404;8.566;2023-04-09T11:45:43;9.85;;;8.52;;
39242;SDS011;29823;47.404;8.566;2023-04-09T11:48:12;10.93;;;9.43;;
39242;SDS011;29823;47.404;8.566;2023-04-09T11:50:41;9.18;;;7.63;;
39242;SDS011;29823;47.404;8.566;2023-04-09T11:53:19;8.18;;;7.28;;
39242;SDS011;29823;47.404;8.566;2023-04-09T11:55:48;9.43;;;8.27;;
39242;SDS011;29823;47.404;8.566;2023-04-09T11:58:17;9.73;;;7.50;;
39242;SDS011;29823;47.404;8.566;2023-04-09T12:00:51;6.90;;;6.22;;
39242;SDS011;29823;47.404;8.566;2023-04-09T12:03:24;8.45;;;7.22;;
39242;SDS011;29823;47.404;8.566;2023-04-09T12:05:55;8.77;;;7.75;;
39242;SDS011;29823;47.404;8.566;2023-04-09T12:08:25;7.97;;;7.10;;
39242;SDS011;29823;47.404;8.566;2023-04-09T12:10:53;7.60;;;6.15;;
39242;SDS011;29823;47.404;8.566;2023-04-09T12:13:23;7.85;;;6.97;;
39242;SDS011;29823;47.404;8.566;2023-04-09T12:15:59;6.88;;;6.15;;
39242;SDS011;29823;47.404;8.566;2023-04-09T12:18:27;6.43;;;5.25;;
39242;SDS011;29823;47.404;8.566;2023-04-09T12:20:55;4.88;;;4.38;;
39242;SDS011;29823;47.404;8.566;2023-04-09T12:23:26;6.80;;;5.18;;
39242;SDS011;29823;47.404;8.566;2023-04-09T12:25:56;5.93;;;5.25;;
39242;SDS011;29823;47.404;8.566;2023-04-09T12:28:26;5.90;;;5.20;;
39242;SDS011;29823;47.404;8.566;2023-04-09T12:30:55;6.30;;;5.60;;
39242;SDS011;29823;47.404;8.566;2023-04-09T12:33:25;5.80;;;5.15;;
39242;SDS011;29823;47.404;8.566;2023-04-09T12:35:52;7.00;;;5.70;;
39242;SDS011;29823;47.404;8.566;2023-04-09T12:38:21;7.40;;;6.40;;
39242;SDS011;29823;47.404;8.566;2023-04-09T12:40:50;6.65;;;5.90;;
39242;SDS011;29823;47.404;8.566;2023-04-09T12:43:18;6.97;;;5.95;;
39242;SDS011;29823;47.404;8.566;2023-04-09T12:45:46;6.20;;;5.38;;
39242;SDS011;29823;47.404;8.566;2023-04-09T12:48:14;5.78;;;5.03;;
39242;SDS011;29823;47.404;8.566;2023-04-09T12:50:42;5.97;;;5.05;;
39242;SDS011;29823;47.404;8.566;2023-04-09T12:53:10;6.05;;;5.00;;
39242;SDS011;29823;47.404;8.566;2023-04-09T12:55:38;5.72;;;5.13;;
39242;SDS011;29823;47.404;8.566;2023-04-09T12:58:09;5.40;;;4.80;;
39242;SDS011;29823;47.404;8.566;2023-04-09T13:00:37;6.07;;;5.25;;
39242;SDS011;29823;47.404;8.566;2023-04-09T13:03:05;5.30;;;4.40;;
39242;SDS011;29823;47.404;8.566;2023-04-09T13:05:33;5.40;;;4.90;;
39242;SDS011;29823;47.404;8.566;2023-04-09T13:08:01;5.13;;;4.63;;
39242;SDS011;29823;47.404;8.566;2023-04-09T13:10:29;5.22;;;4.70;;
39242;SDS011;29823;47.404;8.566;2023-04-09T13:12:57;5.30;;;4.68;;
39242;SDS011;29823;47.404;8.566;2023-04-09T13:15:27;8.30;;;5.57;;
39242;SDS011;29823;47.404;8.566;2023-04-09T13:17:55;6.53;;;5.25;;
39242;SDS011;29823;47.404;8.566;2023-04-09T13:20:23;5.80;;;4.80;;
39242;SDS011;29823;47.404;8.566;2023-04-09T13:22:50;9.20;;;5.65;;
39242;SDS011;29823;47.404;8.566;2023-04-09T13:25:18;5.65;;;4.95;;
39242;SDS011;29823;47.404;8.566;2023-04-09T13:27:46;6.45;;;5.40;;
39242;SDS011;29823;47.404;8.566;2023-04-09T13:30:17;5.03;;;4.50;;
39242;SDS011;29823;47.404;8.566;2023-04-09T13:32:46;5.53;;;4.85;;
39242;SDS011;29823;47.404;8.566;2023-04-09T13:35:14;5.90;;;5.30;;
39242;SDS011;29823;47.404;8.566;2023-04-09T13:37:42;6.82;;;5.20;;
39242;SDS011;29823;47.404;8.566;2023-04-09T13:40:10;5.88;;;4.90;;
39242;SDS011;29823;47.404;8.566;2023-04-09T13:42:38;6.85;;;5.28;;
39242;SDS011;29823;47.404;8.566;2023-04-09T13:45:06;4.53;;;4.13;;
39242;SDS011;29823;47.404;8.566;2023-04-09T13:47:34;4.15;;;3.60;;
39242;SDS011;29823;47.404;8.566;2023-04-09T13:50:05;4.30;;;3.70;;
39242;SDS011;29823;47.404;8.566;2023-04-09T13:52:35;3.55;;;3.08;;
39242;SDS011;29823;47.404;8.566;2023-04-09T13:55:03;3.60;;;2.95;;
39242;SDS011;29823;47.404;8.566;2023-04-09T13:57:32;3.92;;;3.53;;
39242;SDS011;29823;47.404;8.566;2023-04-09T14:00:00;3.97;;;3.50;;
39242;SDS011;29823;47.404;8.566;2023-04-09T14:02:30;4.30;;;3.50;;
39242;SDS011;29823;47.404;8.566;2023-04-09T14:04:58;4.10;;;3.70;;
39242;SDS011;29823;47.404;8.566;2023-04-09T14:07:29;6.70;;;3.40;;
39242;SDS011;29823;47.404;8.566;2023-04-09T14:09:57;7.22;;;4.15;;
39242;SDS011;29823;47.404;8.566;2023-04-09T14:12:25;4.40;;;3.90;;
39242;SDS011;29823;47.404;8.566;2023-04-09T14:14:52;6.10;;;4.68;;
39242;SDS011;29823;47.404;8.566;2023-04-09T14:17:20;4.10;;;3.70;;
39242;SDS011;29823;47.404;8.566;2023-04-09T14:19:48;4.45;;;3.58;;
39242;SDS011;29823;47.404;8.566;2023-04-09T14:22:16;3.90;;;2.80;;
39242;SDS011;29823;47.404;8.566;2023-04-09T14:24:45;4.53;;;3.67;;
39242;SDS011;29823;47.404;8.566;2023-04-09T14:27:13;4.97;;;3.97;;
39242;SDS011;29823;47.404;8.566;2023-04-09T14:29:41;4.22;;;3.53;;
39242;SDS011;29823;47.404;8.566;2023-04-09T14:32:09;4.45;;;3.58;;
39242;SDS011;29823;47.404;8.566;2023-04-09T14:34:36;4.70;;;3.50;;
39242;SDS011;29823;47.404;8.566;2023-04-09T14:37:04;3.72;;;3.20;;
39242;SDS011;29823;47.404;8.566;2023-04-09T14:39:32;5.20;;;3.47;;
39242;SDS011;29823;47.404;8.566;2023-04-09T14:42:01;4.85;;;3.47;;
39242;SDS011;29823;47.404;8.566;2023-04-09T14:44:29;7.00;;;4.07;;
39242;SDS011;29823;47.404;8.566;2023-04-09T14:46:57;4.50;;;3.20;;